Terminal Aerodrome Forecast
Issued by NWS

Home | Current Version | Previous Version | Text Only | Print | Product List | Glossary Off
Versions: 1 2 3 4 5 6 7 8 9 10 11 12 13 14 15 16 17

000
FTUS41 KCLE 261848 AAA
TAFFDY
TAF AMD
KFDY 261848Z 2619/2718 18015G25KT P6SM BKN045
     FM262200 18015G25KT P6SM VCTS BKN040CB OVC080
     FM270100 19015G22KT P6SM BKN020
     FM270400 20012KT P6SM SCT008
     FM271300 21013KT P6SM SCT015 BKN035=

USA.gov is the U.S. government's official web portal to all federal, state and local government web resources and services.